Hippo, Kentucky
Current Conditions -  °F | °C
As of 8:35 AM on Tuesday 21 Oct 2014 (Local Time) from KSJS Reporting Station
Overcast Overcast  
Wind Chill: 51°   Ceiling: 1000
Heat Index: 51°   Visibility: 10mi
Dew Point: 49°   Wind: 6mph
Humidity: 93%   Direction: 260°W
Pressure: 29.96"   Gusts: NA
Location:  37.6405°N, 82.8256°W
Report Text: KSJS 211235Z AUTO 26005KT 10SM OVC010 11/10 A2996 RMK AO2 T01080097
Loading
Personal Weather Stations






























Interactive Weather Map
Tropical Storm Tracking
New forecast layout! Learn more

10-Day Weather Forecast

Advertisements
Track Severe Weather on mobile